createdAt,value
2018-07-27T00:01:55.107Z,18.49
2018-07-27T00:04:26.955Z,18.47
2018-07-27T00:06:58.092Z,18.45
2018-07-27T00:09:27.268Z,18.41
2018-07-27T00:11:56.457Z,18.38
2018-07-27T00:14:25.633Z,18.33
2018-07-27T00:16:55.142Z,18.28
2018-07-27T00:19:24.296Z,18.28
2018-07-27T00:21:53.531Z,18.23
2018-07-27T00:24:22.693Z,18.23
2018-07-27T00:26:51.862Z,18.22
2018-07-27T00:29:21.022Z,18.19
2018-07-27T00:31:50.182Z,18.17
2018-07-27T00:34:19.318Z,18.12
2018-07-27T00:36:48.503Z,18.09
2018-07-27T00:39:17.657Z,18.06
2018-07-27T00:41:46.788Z,18.04
2018-07-27T00:44:15.980Z,18.03
2018-07-27T00:46:45.286Z,18.02
2018-07-27T00:49:14.449Z,17.99
2018-07-27T00:51:43.624Z,17.95
2018-07-27T00:54:12.761Z,17.91
2018-07-27T00:56:41.900Z,17.86
2018-07-27T00:59:11.040Z,17.79
2018-07-27T01:01:40.253Z,17.74
2018-07-27T01:04:09.406Z,17.71
2018-07-27T01:06:38.698Z,17.68
2018-07-27T01:09:09.637Z,17.67
2018-07-27T01:11:38.971Z,17.66
2018-07-27T01:14:09.747Z,17.66
2018-07-27T01:16:38.901Z,17.64
2018-07-27T01:19:08.300Z,17.62
2018-07-27T01:21:37.552Z,17.58
2018-07-27T01:24:06.739Z,17.58
2018-07-27T01:26:35.898Z,17.56
2018-07-27T01:29:05.164Z,17.53
2018-07-27T01:31:34.419Z,17.52
2018-07-27T01:34:03.589Z,17.51
2018-07-27T01:36:32.774Z,17.50
2018-07-27T01:39:01.894Z,17.48
2018-07-27T01:41:31.070Z,17.44
2018-07-27T01:44:00.252Z,17.40
2018-07-27T01:46:29.456Z,17.36
2018-07-27T01:48:58.685Z,17.35
2018-07-27T01:51:27.974Z,17.36
2018-07-27T01:53:57.133Z,17.36
2018-07-27T01:56:26.296Z,17.37
2018-07-27T01:58:55.440Z,17.36
2018-07-27T02:01:24.612Z,17.37
2018-07-27T02:03:54.317Z,17.37
2018-07-27T02:06:23.489Z,17.36
2018-07-27T02:08:52.654Z,17.35
2018-07-27T02:11:21.832Z,17.34
2018-07-27T02:13:51.068Z,17.30
2018-07-27T02:16:20.230Z,17.26
2018-07-27T02:18:49.400Z,17.24
2018-07-27T02:21:18.574Z,17.22
2018-07-27T02:23:47.718Z,17.21
2018-07-27T02:26:16.889Z,17.21
2018-07-27T02:28:46.020Z,17.20
2018-07-27T02:31:15.257Z,17.19
2018-07-27T02:33:44.611Z,17.12
2018-07-27T02:36:13.786Z,17.08
2018-07-27T02:38:42.952Z,17.04
2018-07-27T02:41:12.107Z,17.02
2018-07-27T02:43:41.380Z,17.01
2018-07-27T02:46:10.586Z,17.01
2018-07-27T02:48:39.795Z,16.99
2018-07-27T02:51:09.132Z,16.99
2018-07-27T02:53:38.629Z,16.91
2018-07-27T02:56:07.982Z,16.87
2018-07-27T02:58:37.148Z,16.86
2018-07-27T03:01:06.780Z,16.84
2018-07-27T03:03:36.023Z,16.85
2018-07-27T03:06:05.255Z,16.85
2018-07-27T03:08:34.452Z,16.84
2018-07-27T03:11:03.674Z,16.80
2018-07-27T03:13:32.826Z,16.80
2018-07-27T03:16:02.011Z,16.79
2018-07-27T03:18:31.178Z,16.79
2018-07-27T03:21:00.333Z,16.77
2018-07-27T03:23:29.605Z,16.73
2018-07-27T03:25:58.762Z,16.69
2018-07-27T03:28:27.891Z,16.68
2018-07-27T03:30:57.117Z,16.69
2018-07-27T03:33:26.281Z,16.70
2018-07-27T03:35:55.431Z,16.71
2018-07-27T03:38:24.613Z,16.72
2018-07-27T03:40:53.792Z,16.74
2018-07-27T03:43:22.924Z,16.75
2018-07-27T03:45:52.093Z,16.74
2018-07-27T03:48:21.249Z,16.74
2018-07-27T03:50:50.493Z,16.76
2018-07-27T03:53:19.708Z,16.78
2018-07-27T03:55:48.900Z,16.80
2018-07-27T03:58:18.033Z,16.82
2018-07-27T04:00:47.198Z,16.83
2018-07-27T04:03:16.341Z,16.85
2018-07-27T04:05:45.525Z,16.86
2018-07-27T04:08:14.708Z,16.90
2018-07-27T04:10:44.428Z,16.96
2018-07-27T04:13:13.585Z,17.01
2018-07-27T04:15:42.763Z,17.07
2018-07-27T04:18:11.920Z,17.10
2018-07-27T04:20:41.160Z,17.13
2018-07-27T04:23:11.251Z,17.19
2018-07-27T04:25:40.437Z,17.25
2018-07-27T04:28:09.584Z,17.32
2018-07-27T04:30:38.703Z,17.40
2018-07-27T04:33:08.541Z,17.47
2018-07-27T04:35:37.752Z,17.47
2018-07-27T04:38:07.071Z,17.52
2018-07-27T04:40:36.275Z,17.63
2018-07-27T04:43:05.440Z,17.73
2018-07-27T04:45:34.588Z,17.83
2018-07-27T04:48:03.777Z,17.90
2018-07-27T04:50:32.901Z,17.97
2018-07-27T04:53:02.056Z,17.99
2018-07-27T04:55:31.350Z,18.02
2018-07-27T04:58:00.522Z,18.05
2018-07-27T05:00:29.668Z,18.10
2018-07-27T05:02:58.913Z,18.23
2018-07-27T05:05:28.076Z,18.31
2018-07-27T05:07:57.222Z,18.37
2018-07-27T05:10:31.677Z,18.44
2018-07-27T05:13:00.889Z,18.50
2018-07-27T05:15:30.056Z,18.60
2018-07-27T05:17:59.298Z,18.72
2018-07-27T05:20:28.465Z,18.80
2018-07-27T05:22:57.640Z,18.88
2018-07-27T05:25:26.792Z,19.01
2018-07-27T05:27:55.941Z,19.07
2018-07-27T05:30:25.183Z,19.15
2018-07-27T05:32:54.356Z,19.25
2018-07-27T05:35:23.561Z,19.40
2018-07-27T05:37:52.762Z,19.50
2018-07-27T05:40:21.966Z,19.58
2018-07-27T05:42:51.194Z,19.68
2018-07-27T05:45:20.372Z,19.83
2018-07-27T05:47:49.561Z,19.92
2018-07-27T05:50:19.305Z,19.91
2018-07-27T05:52:48.479Z,19.91
2018-07-27T05:55:17.674Z,19.90
2018-07-27T05:57:46.804Z,19.86
2018-07-27T06:00:15.993Z,19.83
2018-07-27T06:02:45.584Z,19.80
2018-07-27T06:05:14.663Z,19.79
2018-07-27T06:07:43.852Z,19.71
2018-07-27T06:10:13.126Z,19.80
2018-07-27T06:12:42.292Z,19.83
2018-07-27T06:15:11.693Z,19.91
2018-07-27T06:17:40.875Z,19.97
2018-07-27T06:20:10.272Z,20.03
2018-07-27T06:22:39.397Z,20.05
2018-07-27T06:25:08.742Z,20.13
2018-07-27T06:27:37.924Z,20.24
2018-07-27T06:30:07.233Z,20.25
2018-07-27T06:32:36.329Z,20.25
2018-07-27T06:35:05.501Z,20.28
2018-07-27T06:37:34.698Z,20.41
2018-07-27T06:40:03.995Z,20.52
2018-07-27T06:42:33.145Z,20.73
2018-07-27T06:45:02.337Z,20.92
2018-07-27T06:47:31.524Z,21.08
2018-07-27T06:50:01.557Z,21.19
2018-07-27T06:52:30.706Z,21.34
2018-07-27T06:54:59.885Z,21.52
2018-07-27T06:57:29.090Z,21.53
2018-07-27T06:59:59.152Z,21.53
2018-07-27T07:02:28.889Z,21.61
2018-07-27T07:04:58.066Z,21.73
2018-07-27T07:07:27.189Z,21.87
2018-07-27T07:09:56.568Z,21.97
2018-07-27T07:12:25.737Z,21.97
2018-07-27T07:14:54.901Z,22.17
2018-07-27T07:17:24.091Z,22.33
2018-07-27T07:19:53.270Z,22.52
2018-07-27T07:22:22.555Z,22.72
2018-07-27T07:24:51.733Z,22.90
2018-07-27T07:27:20.896Z,22.89
2018-07-27T07:29:50.039Z,22.84
2018-07-27T07:32:19.296Z,22.84
2018-07-27T07:34:48.449Z,23.02
2018-07-27T07:37:19.032Z,23.27
2018-07-27T07:39:48.177Z,23.41
2018-07-27T07:42:17.351Z,23.36
2018-07-27T07:44:46.635Z,23.34
2018-07-27T07:47:15.958Z,23.16
2018-07-27T07:49:45.127Z,23.26
2018-07-27T07:52:14.269Z,23.53
2018-07-27T07:54:43.446Z,23.74
2018-07-27T07:57:12.648Z,23.91
2018-07-27T07:59:41.835Z,24.03
2018-07-27T08:02:11.016Z,24.12
2018-07-27T08:04:40.169Z,24.22
2018-07-27T08:07:09.435Z,24.28
2018-07-27T08:09:38.638Z,24.44
2018-07-27T08:12:07.826Z,24.67
2018-07-27T08:14:36.994Z,24.88
2018-07-27T08:17:06.261Z,24.97
2018-07-27T08:19:35.397Z,24.98
2018-07-27T08:22:04.586Z,25.01
2018-07-27T08:24:33.898Z,25.10
2018-07-27T08:27:05.131Z,25.14
2018-07-27T08:29:41.654Z,25.09
2018-07-27T08:32:10.886Z,25.15
2018-07-27T08:34:40.132Z,25.21
2018-07-27T08:37:09.785Z,25.14
2018-07-27T08:39:41.269Z,25.25
2018-07-27T08:42:10.493Z,25.34
2018-07-27T08:44:40.937Z,25.47
2018-07-27T08:47:10.128Z,25.60
2018-07-27T08:49:39.304Z,25.63
2018-07-27T08:52:08.527Z,25.50
2018-07-27T08:54:37.669Z,25.76
2018-07-27T08:57:07.013Z,25.72
2018-07-27T08:59:36.205Z,25.89
2018-07-27T09:02:05.661Z,26.18
2018-07-27T09:04:34.854Z,26.24
2018-07-27T09:07:05.073Z,26.22
2018-07-27T09:09:34.273Z,26.36
2018-07-27T09:12:03.858Z,26.57
2018-07-27T09:14:33.060Z,26.78
2018-07-27T09:17:02.224Z,26.95
2018-07-27T09:19:31.522Z,26.97
2018-07-27T09:22:00.753Z,27.13
2018-07-27T09:24:30.150Z,27.28
2018-07-27T09:26:59.122Z,27.47
2018-07-27T09:29:28.300Z,27.67
2018-07-27T09:31:57.451Z,28.06
2018-07-27T09:34:26.613Z,28.16
2018-07-27T09:36:55.724Z,28.10
2018-07-27T09:39:24.880Z,28.12
2018-07-27T09:41:54.013Z,28.07
2018-07-27T09:44:23.196Z,28.03
2018-07-27T09:46:52.369Z,27.77
2018-07-27T09:49:21.517Z,28.06
2018-07-27T09:51:50.672Z,28.34
2018-07-27T09:54:19.817Z,28.60
2018-07-27T09:56:49.128Z,28.90
2018-07-27T09:59:18.294Z,28.89
2018-07-27T10:01:47.421Z,28.46
2018-07-27T10:04:16.594Z,28.67
2018-07-27T10:06:45.722Z,28.79
2018-07-27T10:09:14.862Z,29.00
2018-07-27T10:11:44.047Z,28.99
2018-07-27T10:14:13.187Z,29.26
2018-07-27T10:16:42.369Z,29.27
2018-07-27T10:19:11.503Z,29.30
2018-07-27T10:21:40.642Z,29.27
2018-07-27T10:24:13.514Z,29.35
2018-07-27T10:26:42.581Z,29.35
2018-07-27T10:29:11.707Z,29.40
2018-07-27T10:31:40.998Z,29.65
2018-07-27T10:34:10.151Z,29.44
2018-07-27T10:36:39.279Z,29.58
2018-07-27T10:39:10.867Z,29.71
2018-07-27T10:41:40.099Z,29.89
2018-07-27T10:44:09.290Z,29.91
2018-07-27T10:46:38.488Z,29.89
2018-07-27T10:49:07.850Z,29.66
2018-07-27T10:51:37.029Z,29.75
2018-07-27T10:54:07.287Z,29.94
2018-07-27T10:56:36.542Z,30.14
2018-07-27T10:59:05.898Z,30.18
2018-07-27T11:01:35.101Z,30.44
2018-07-27T11:04:06.097Z,30.24
2018-07-27T11:06:35.290Z,30.55
2018-07-27T11:09:06.485Z,30.74
2018-07-27T11:11:36.413Z,30.60
2018-07-27T11:14:05.616Z,30.46
2018-07-27T11:16:34.831Z,30.25
2018-07-27T11:19:03.982Z,30.38
2018-07-27T11:21:33.132Z,30.56
2018-07-27T11:24:02.319Z,30.70
2018-07-27T11:26:31.530Z,30.71
2018-07-27T11:29:00.692Z,30.76
2018-07-27T11:31:29.844Z,30.70
2018-07-27T11:33:59.228Z,30.83
2018-07-27T11:36:28.397Z,30.59
2018-07-27T11:38:57.552Z,30.51
2018-07-27T11:41:26.751Z,30.43
2018-07-27T11:43:55.880Z,30.62
2018-07-27T11:46:25.045Z,30.79
2018-07-27T11:48:54.168Z,30.60
2018-07-27T11:51:23.432Z,30.71
2018-07-27T11:53:52.619Z,30.85
2018-07-27T11:56:21.831Z,30.95
2018-07-27T11:58:51.041Z,31.24
2018-07-27T12:01:20.632Z,31.60
2018-07-27T12:03:50.211Z,31.43
2018-07-27T12:06:19.508Z,31.39
2018-07-27T12:08:48.684Z,30.94
2018-07-27T12:11:17.870Z,31.06
2018-07-27T12:13:47.122Z,31.35
2018-07-27T12:16:16.269Z,31.55
2018-07-27T12:18:45.477Z,31.51
2018-07-27T12:21:14.733Z,31.28
2018-07-27T12:23:43.834Z,31.04
2018-07-27T12:26:12.961Z,31.04
2018-07-27T12:28:42.601Z,31.26
2018-07-27T12:31:11.973Z,31.55
2018-07-27T12:33:41.098Z,31.72
2018-07-27T12:36:10.263Z,31.72
2018-07-27T12:38:39.424Z,31.89
2018-07-27T12:41:08.773Z,31.69
2018-07-27T12:43:37.993Z,30.92
2018-07-27T12:46:07.200Z,30.99
2018-07-27T12:48:36.360Z,30.72
2018-07-27T12:51:05.578Z,30.65
2018-07-27T12:53:34.977Z,31.00
2018-07-27T12:56:04.105Z,31.35
2018-07-27T12:58:33.316Z,31.25
2018-07-27T13:01:02.825Z,31.22
2018-07-27T13:03:31.997Z,31.44
2018-07-27T13:06:01.156Z,31.17
2018-07-27T13:08:30.323Z,31.35
2018-07-27T13:10:59.653Z,31.43
2018-07-27T13:13:28.798Z,31.36
2018-07-27T13:15:58.024Z,31.11
2018-07-27T13:18:27.157Z,31.24
2018-07-27T13:20:57.193Z,31.45
2018-07-27T13:23:26.386Z,31.28
2018-07-27T13:28:44.725Z,30.33
2018-07-27T13:31:14.057Z,29.98
2018-07-27T13:34:01.089Z,29.88
2018-07-27T13:36:30.257Z,29.73
2018-07-27T13:38:59.421Z,29.73
2018-07-27T13:41:28.611Z,29.73
2018-07-27T13:43:57.809Z,29.56
2018-07-27T13:46:26.961Z,29.29
2018-07-27T13:49:00.040Z,29.20
2018-07-27T13:51:29.482Z,29.05
2018-07-27T13:53:58.576Z,28.71
2018-07-27T13:56:27.718Z,28.43
2018-07-27T13:58:56.925Z,28.40
2018-07-27T14:01:26.056Z,28.93
2018-07-27T14:03:55.226Z,29.30
2018-07-27T14:06:24.356Z,29.57
2018-07-27T14:08:53.477Z,29.67
2018-07-27T14:11:22.657Z,29.55
2018-07-27T14:13:51.767Z,29.51
2018-07-27T14:16:20.936Z,29.07
2018-07-27T14:18:50.092Z,28.84
2018-07-27T14:21:19.303Z,28.64
2018-07-27T14:23:48.486Z,27.96
2018-07-27T14:26:17.634Z,28.11
2018-07-27T14:28:46.773Z,28.30
2018-07-27T14:31:15.951Z,28.13
2018-07-27T14:33:45.285Z,27.98
2018-07-27T14:36:14.420Z,27.96
2018-07-27T14:38:43.589Z,28.12
2018-07-27T14:41:12.782Z,28.40
2018-07-27T14:43:41.990Z,28.51
2018-07-27T14:46:11.156Z,28.66
2018-07-27T14:48:40.337Z,28.78
2018-07-27T14:51:09.482Z,28.78
2018-07-27T14:53:38.619Z,28.69
2018-07-27T14:56:07.862Z,28.83
2018-07-27T14:58:37.104Z,28.79
2018-07-27T15:01:06.405Z,28.86
2018-07-27T15:03:35.690Z,28.78
2018-07-27T15:06:04.869Z,28.84
2018-07-27T15:08:33.985Z,28.89
2018-07-27T15:11:03.192Z,28.86
2018-07-27T15:13:32.318Z,28.87
2018-07-27T15:16:01.478Z,29.05
2018-07-27T15:18:30.613Z,29.20
2018-07-27T15:20:59.751Z,29.45
2018-07-27T15:23:28.898Z,29.65
2018-07-27T15:25:58.100Z,29.64
2018-07-27T15:28:27.225Z,29.73
2018-07-27T15:30:56.408Z,29.87
2018-07-27T15:33:25.573Z,29.92
2018-07-27T15:35:54.794Z,29.97
2018-07-27T15:38:23.945Z,29.93
2018-07-27T15:40:53.201Z,29.99
2018-07-27T15:43:22.353Z,29.86
2018-07-27T15:45:51.521Z,29.86
2018-07-27T15:48:20.715Z,29.76
2018-07-27T15:50:49.859Z,29.75
2018-07-27T15:53:18.987Z,29.75
2018-07-27T15:55:48.176Z,29.37
2018-07-27T15:58:17.275Z,28.88
2018-07-27T16:00:46.444Z,28.56
2018-07-27T16:03:15.640Z,28.22
2018-07-27T16:05:44.772Z,28.10
2018-07-27T16:08:13.919Z,27.88
2018-07-27T16:10:43.067Z,27.88
2018-07-27T16:13:12.266Z,27.84
2018-07-27T16:15:41.421Z,27.77
2018-07-27T16:18:10.661Z,27.81
2018-07-27T16:20:39.902Z,27.66
2018-07-27T16:23:09.237Z,27.67
2018-07-27T16:25:38.863Z,27.60
2018-07-27T16:28:08.012Z,27.54
2018-07-27T16:30:37.134Z,27.50
2018-07-27T16:33:06.465Z,27.47
2018-07-27T16:35:35.603Z,27.42
2018-07-27T16:38:04.799Z,27.40
2018-07-27T16:40:33.976Z,27.33
2018-07-27T16:43:03.160Z,27.32
2018-07-27T16:45:32.312Z,27.26
2018-07-27T16:48:01.599Z,27.21
2018-07-27T16:50:30.770Z,27.18
2018-07-27T16:53:00.047Z,27.13
2018-07-27T16:55:29.254Z,27.06
2018-07-27T16:57:58.377Z,27.02
2018-07-27T17:00:27.600Z,26.95
2018-07-27T17:02:56.727Z,26.92
2018-07-27T17:05:25.860Z,26.90
2018-07-27T17:07:54.981Z,26.87
2018-07-27T17:10:24.135Z,26.85
2018-07-27T17:12:53.291Z,26.81
2018-07-27T17:15:22.440Z,26.78
2018-07-27T17:17:51.632Z,26.73
2018-07-27T17:20:20.839Z,26.70
2018-07-27T17:22:50.198Z,26.62
2018-07-27T17:25:19.560Z,26.50
2018-07-27T17:27:50.225Z,26.42
2018-07-27T17:30:19.390Z,26.37
2018-07-27T17:32:48.666Z,26.34
2018-07-27T17:35:17.781Z,26.35
2018-07-27T17:37:46.913Z,26.36
2018-07-27T17:40:16.136Z,26.37
2018-07-27T17:42:45.336Z,26.38
2018-07-27T17:45:14.474Z,26.34
2018-07-27T17:47:43.631Z,26.38
2018-07-27T17:50:12.916Z,26.40
2018-07-27T17:52:42.056Z,26.39
2018-07-27T17:55:11.462Z,26.42
2018-07-27T17:57:40.736Z,26.40
2018-07-27T18:00:10.021Z,26.39
2018-07-27T18:02:39.457Z,26.34
2018-07-27T18:05:08.967Z,26.23
2018-07-27T18:07:38.303Z,26.17
2018-07-27T18:10:07.502Z,26.14
2018-07-27T18:12:36.666Z,26.11
2018-07-27T18:15:06.057Z,26.07
2018-07-27T18:17:35.258Z,25.99
2018-07-27T18:20:05.680Z,25.93
2018-07-27T18:22:35.259Z,25.86
2018-07-27T18:25:05.547Z,25.79
2018-07-27T18:27:34.681Z,25.72
2018-07-27T18:30:03.972Z,25.65
2018-07-27T18:32:33.149Z,25.56
2018-07-27T18:35:02.301Z,25.44
2018-07-27T18:37:31.437Z,25.36
2018-07-27T18:40:00.615Z,25.27
2018-07-27T18:42:29.818Z,25.12
2018-07-27T18:44:59.020Z,24.97
2018-07-27T18:47:28.769Z,24.87
2018-07-27T18:49:58.465Z,24.77
2018-07-27T18:52:27.653Z,24.69
2018-07-27T18:54:56.867Z,24.58
2018-07-27T18:57:25.998Z,24.45
2018-07-27T18:59:55.197Z,24.38
2018-07-27T19:02:24.410Z,24.32
2018-07-27T19:04:53.585Z,24.29
2018-07-27T19:07:22.819Z,24.24
2018-07-27T19:09:52.072Z,24.21
2018-07-27T19:12:21.215Z,24.15
2018-07-27T19:14:50.427Z,24.11
2018-07-27T19:17:19.712Z,24.06
2018-07-27T19:19:49.009Z,23.95
2018-07-27T19:22:18.184Z,23.87
2018-07-27T19:24:47.355Z,23.83
2018-07-27T19:27:16.565Z,23.74
2018-07-27T19:29:45.879Z,23.69
2018-07-27T19:32:15.053Z,23.62
2018-07-27T19:34:44.226Z,23.50
2018-07-27T19:37:13.372Z,23.39
2018-07-27T19:39:42.548Z,23.30
2018-07-27T19:42:11.719Z,23.24
2018-07-27T19:44:40.939Z,23.19
2018-07-27T19:47:11.128Z,23.17
2018-07-27T19:49:40.328Z,23.11
2018-07-27T19:52:09.564Z,23.03
2018-07-27T19:54:38.881Z,23.01
2018-07-27T19:57:08.217Z,22.98
2018-07-27T19:59:37.365Z,22.96
2018-07-27T20:02:06.645Z,22.93
2018-07-27T20:04:35.802Z,22.85
2018-07-27T20:07:05.189Z,22.75
2018-07-27T20:09:34.409Z,22.71
2018-07-27T20:12:03.625Z,22.68
2018-07-27T20:14:32.787Z,22.63
2018-07-27T20:17:02.498Z,22.58
2018-07-27T20:19:33.074Z,22.48
2018-07-27T20:22:02.269Z,22.42
2018-07-27T20:24:31.417Z,22.41
2018-07-27T20:27:00.553Z,22.41
2018-07-27T20:29:29.776Z,22.36
2018-07-27T20:31:58.948Z,22.29
2018-07-27T20:34:28.085Z,22.21
2018-07-27T20:36:57.298Z,22.15
2018-07-27T20:39:26.499Z,22.10
2018-07-27T20:41:55.660Z,22.06
2018-07-27T20:44:24.841Z,22.03
2018-07-27T20:46:54.027Z,22.01
2018-07-27T20:49:23.186Z,22.00
2018-07-27T20:51:52.366Z,21.99
2018-07-27T20:54:21.591Z,21.88
2018-07-27T20:56:50.785Z,21.77
2018-07-27T20:59:19.921Z,21.62
2018-07-27T21:01:49.257Z,21.82
2018-07-27T21:04:18.487Z,21.80
2018-07-27T21:06:47.602Z,21.80
2018-07-27T21:09:16.768Z,21.85
2018-07-27T21:11:45.930Z,21.91
2018-07-27T21:14:15.066Z,21.91
2018-07-27T21:16:44.266Z,21.90
2018-07-27T21:19:14.101Z,21.86
2018-07-27T21:21:43.580Z,21.80
2018-07-27T21:24:12.731Z,21.80
2018-07-27T21:26:42.504Z,21.83
2018-07-27T21:29:11.831Z,21.77
2018-07-27T21:31:41.198Z,21.76
2018-07-27T21:34:10.377Z,21.73
2018-07-27T21:36:39.626Z,21.75
2018-07-27T21:39:11.424Z,21.72
2018-07-27T21:41:40.602Z,21.83
2018-07-27T21:44:09.841Z,21.79
2018-07-27T21:46:39.185Z,21.79
2018-07-27T21:49:08.457Z,21.83
2018-07-27T21:51:37.673Z,21.84
2018-07-27T21:54:07.744Z,21.80
2018-07-27T21:56:36.890Z,21.80
2018-07-27T21:59:06.134Z,21.76
2018-07-27T22:01:35.314Z,21.72
2018-07-27T22:04:04.470Z,21.73
2018-07-27T22:06:33.620Z,21.66
2018-07-27T22:09:03.023Z,21.61
2018-07-27T22:11:32.189Z,21.55
2018-07-27T22:14:01.344Z,21.53
2018-07-27T22:16:30.525Z,21.52
2018-07-27T22:18:59.748Z,21.48
2018-07-27T22:21:28.873Z,21.43
2018-07-27T22:23:58.091Z,21.37
2018-07-27T22:26:27.709Z,21.37
2018-07-27T22:28:56.860Z,21.34
2018-07-27T22:31:26.102Z,21.28
2018-07-27T22:33:55.566Z,21.24
2018-07-27T22:36:24.826Z,21.20
2018-07-27T22:38:53.994Z,21.17
2018-07-27T22:41:23.241Z,21.12
2018-07-27T22:43:52.361Z,21.07
2018-07-27T22:46:21.608Z,21.03
2018-07-27T22:48:50.776Z,21.02
2018-07-27T22:51:20.225Z,20.96
2018-07-27T22:53:49.383Z,20.94
2018-07-27T22:56:20.148Z,20.91
2018-07-27T22:58:49.356Z,20.92
2018-07-27T23:01:18.683Z,20.97
2018-07-27T23:03:47.809Z,20.93
2018-07-27T23:06:16.976Z,20.86
2018-07-27T23:08:46.221Z,20.80
2018-07-27T23:11:15.372Z,20.72
2018-07-27T23:13:44.573Z,20.67
2018-07-27T23:16:13.769Z,20.67
2018-07-27T23:18:42.961Z,20.64
2018-07-27T23:21:12.142Z,20.57
2018-07-27T23:23:41.352Z,20.44
2018-07-27T23:26:10.497Z,20.42
2018-07-27T23:28:40.748Z,20.41
2018-07-27T23:31:10.006Z,20.40
2018-07-27T23:33:39.253Z,20.37
2018-07-27T23:36:08.407Z,20.35
2018-07-27T23:38:37.590Z,20.37
2018-07-27T23:41:06.922Z,20.34
2018-07-27T23:43:36.072Z,20.31
2018-07-27T23:46:05.284Z,20.23
2018-07-27T23:48:34.571Z,20.17
2018-07-27T23:51:03.717Z,20.11
2018-07-27T23:53:32.966Z,20.07
2018-07-27T23:56:02.140Z,20.01
2018-07-27T23:58:31.497Z,19.95
